Time;durP1;ratioP1;P1;durP2;ratioP2;P2;SDS_P1;SDS_P2;PMS_P1;PMS_P2;Temp;Humidity;BMP_temperature;BMP_pressure;BME280_temperature;BME280_humidity;BME280_pressure;Samples;Min_cycle;Max_cycle;Signal;HPM_P1;HPM_P2
2021/08/23 00:02:21;;;;;;;7.72;5.38;;;538.30;1817.60;;;;;;5094471;28;20059;-78
2021/08/23 00:04:47;;;;;;;11.95;5.85;;;538.40;1817.60;;;;;;5094306;28;20437;-75
2021/08/23 00:07:12;;;;;;;10.75;5.82;;;538.40;1817.60;;;;;;5094086;28;20488;-76
2021/08/23 00:09:38;;;;;;;10.13;5.70;;;538.40;1817.60;;;;;;5075997;28;20032;-76
2021/08/23 00:12:04;;;;;;;11.50;5.93;;;538.50;1817.60;;;;;;5075602;28;20081;-78
2021/08/23 00:14:30;;;;;;;10.68;5.45;;;538.40;1817.60;;;;;;5093920;28;20059;-75
2021/08/23 00:16:56;;;;;;;13.57;5.80;;;538.40;1817.60;;;;;;5093784;28;20055;-75
2021/08/23 00:19:22;;;;;;;9.60;4.57;;;538.40;1817.60;;;;;;5075806;28;20016;-76
2021/08/23 00:21:50;;;;;;;11.50;6.07;;;538.40;1817.60;;;;;;5093770;28;20024;-76
2021/08/23 00:24:23;;;;;;;7.53;4.72;;;538.30;1817.60;;;;;;5093923;28;20027;-76
2021/08/23 00:26:57;;;;;;;12.85;5.80;;;538.40;1817.60;;;;;;5094019;28;20056;-79
2021/08/23 00:29:26;;;;;;;8.02;5.50;;;538.50;1792.00;;;;;;5093953;28;20035;-75
2021/08/23 00:31:52;;;;;;;10.32;5.72;;;538.50;1792.00;;;;;;5093836;28;20099;-76
2021/08/23 00:34:18;;;;;;;9.60;5.28;;;538.50;1792.00;;;;;;5093687;28;20028;-77
2021/08/23 00:36:44;;;;;;;9.82;5.60;;;563.20;1817.60;;;;;;5093506;28;20042;-77
2021/08/23 00:39:14;;;;;;;12.10;5.65;;;563.30;1817.60;;;;;;5075521;28;20024;-75
2021/08/23 00:41:41;;;;;;;10.27;4.85;;;563.30;1817.60;;;;;;5075454;28;20050;-75
2021/08/23 00:44:07;;;;;;;11.43;5.63;;;563.30;1817.60;;;;;;5093334;28;20568;-76
2021/08/23 00:46:35;;;;;;;9.77;5.95;;;563.30;1817.60;;;;;;5093477;28;20038;-80
2021/08/23 00:49:01;;;;;;;10.05;5.25;;;563.40;1792.00;;;;;;5093231;28;20020;-79
2021/08/23 00:51:27;;;;;;;8.98;5.22;;;563.60;1766.40;;;;;;5093588;28;20054;-79
2021/08/23 00:53:53;;;;;;;10.93;5.65;;;563.70;1766.40;;;;;;5075355;28;20051;-78
2021/08/23 00:56:20;;;;;;;8.55;5.13;;;563.80;1740.80;;;;;;5092561;28;20023;-76
2021/08/23 00:58:47;;;;;;;8.30;5.60;;;563.80;1740.80;;;;;;5092961;28;20024;-78
2021/08/23 01:01:35;;;;;;;14.38;6.43;;;563.70;1740.80;;;;;;5091912;28;20023;-77
2021/08/23 01:04:26;;;;;;;10.32;5.63;;;563.80;1740.80;;;;;;5073674;28;20031;-78
2021/08/23 01:06:52;;;;;;;7.30;4.82;;;563.70;1766.40;;;;;;5072559;28;20048;-79
2021/08/23 01:09:19;;;;;;;8.43;5.78;;;563.80;1792.00;;;;;;5075282;28;20020;-81
2021/08/23 01:11:50;;;;;;;10.55;4.63;;;563.90;1817.60;;;;;;5074743;28;20031;-80
2021/08/23 01:14:17;;;;;;;7.57;5.03;;;564.00;1868.80;;;;;;5092753;28;20369;-79
2021/08/23 01:16:44;;;;;;;8.40;5.18;;;564.00;1868.80;;;;;;5074353;28;20024;-79
2021/08/23 01:19:11;;;;;;;12.27;6.35;;;564.10;1868.80;;;;;;5072351;28;20024;-80
2021/08/23 01:21:37;;;;;;;7.72;4.93;;;564.00;1868.80;;;;;;5092935;28;20013;-76
2021/08/23 01:24:06;;;;;;;6.57;4.57;;;563.80;1868.80;;;;;;5092611;28;20931;-80
2021/08/23 01:26:43;;;;;;;7.13;5.05;;;563.80;1868.80;;;;;;5092641;28;20023;-79
2021/08/23 01:29:26;;;;;;;9.00;4.78;;;563.70;1868.80;;;;;;5090675;28;20068;-77
2021/08/23 01:32:22;;;;;;;9.38;5.07;;;563.50;1868.80;;;;;;5072323;28;20021;-80
2021/08/23 01:34:50;;;;;;;9.70;4.72;;;563.40;1868.80;;;;;;5027063;28;20055;-80
2021/08/23 01:37:25;;;;;;;9.07;4.55;;;563.20;1894.40;;;;;;5029488;28;20033;-79
2021/08/23 01:39:51;;;;;;;8.20;4.53;;;538.50;1894.40;;;;;;5029922;28;20034;-80
2021/08/23 01:42:17;;;;;;;10.88;5.43;;;538.40;1894.40;;;;;;5013168;28;20022;-81
2021/08/23 01:44:46;;;;;;;7.60;5.05;;;538.30;1894.40;;;;;;5029916;28;20543;-77
2021/08/23 01:47:12;;;;;;;8.57;4.90;;;538.20;1894.40;;;;;;5028968;28;20061;-79
2021/08/23 01:49:38;;;;;;;10.82;5.55;;;538.10;1894.40;;;;;;5029613;28;20033;-80
2021/08/23 01:52:09;;;;;;;11.93;4.95;;;538.10;1894.40;;;;;;5029861;28;20037;-78
2021/08/23 01:54:35;;;;;;;10.18;5.25;;;538.10;1868.80;;;;;;5029485;28;20053;-78
2021/08/23 01:57:04;;;;;;;7.47;4.63;;;538.20;1868.80;;;;;;5012792;28;20095;-76
2021/08/23 01:59:29;;;;;;;10.25;5.57;;;538.10;1894.40;;;;;;5045148;28;20698;-80
2021/08/23 02:01:58;;;;;;;16.67;5.78;;;538.00;1894.40;;;;;;5013001;28;20033;-79
2021/08/23 02:04:24;;;;;;;9.43;4.53;;;538.00;1894.40;;;;;;5028678;28;20479;-77
2021/08/23 02:06:49;;;;;;;7.80;4.80;;;538.00;1894.40;;;;;;5029089;28;20076;-79
2021/08/23 02:09:16;;;;;;;6.10;4.00;;;537.90;1868.80;;;;;;5029096;28;20514;-77
2021/08/23 02:11:41;;;;;;;8.88;4.72;;;537.70;1894.40;;;;;;5074133;28;20511;-79
2021/08/23 02:14:07;;;;;;;11.13;5.18;;;512.90;1894.40;;;;;;5094901;28;20021;-77
2021/08/23 02:16:33;;;;;;;12.20;5.40;;;512.80;1894.40;;;;;;5094485;28;20020;-77
2021/08/23 02:18:59;;;;;;;11.93;4.78;;;512.70;1894.40;;;;;;5094742;28;20024;-78
2021/08/23 02:21:27;;;;;;;8.82;4.82;;;512.80;1894.40;;;;;;5093465;28;20020;-79
2021/08/23 02:23:54;;;;;;;8.90;4.85;;;512.70;1894.40;;;;;;5074071;28;20028;-78
2021/08/23 02:26:22;;;;;;;7.07;5.05;;;512.70;1894.40;;;;;;5095588;28;20020;-78
2021/08/23 02:28:48;;;;;;;8.13;5.00;;;512.60;1894.40;;;;;;5095402;28;20024;-79
2021/08/23 02:31:14;;;;;;;8.48;4.88;;;512.60;1894.40;;;;;;5095291;28;20473;-79
2021/08/23 02:33:39;;;;;;;7.93;5.03;;;512.60;1894.40;;;;;;5076837;28;20062;-77
2021/08/23 02:36:05;;;;;;;11.75;5.57;;;512.40;1894.40;;;;;;5095251;28;20020;-79
2021/08/23 02:38:31;;;;;;;10.15;5.07;;;512.40;1894.40;;;;;;5094861;28;20027;-79
2021/08/23 02:40:57;;;;;;;13.57;5.55;;;512.30;1920.00;;;;;;5094106;28;20028;-79
2021/08/23 02:43:23;;;;;;;9.60;5.88;;;512.20;1920.00;;;;;;5095110;28;20055;-79
2021/08/23 02:45:55;;;;;;;8.20;5.85;;;512.10;1920.00;;;;;;5095116;28;20064;-78
2021/08/23 02:48:23;;;;;;;11.15;6.13;;;512.10;1945.60;;;;;;5095166;28;20031;-79
2021/08/23 02:50:55;;;;;;;11.70;6.57;;;487.30;1945.60;;;;;;5076852;28;20020;-79
2021/08/23 02:53:21;;;;;;;8.80;6.20;;;512.30;1920.00;;;;;;5095842;28;20024;-79
2021/08/23 02:55:46;;;;;;;14.75;6.18;;;512.00;1920.00;;;;;;5095563;28;20449;-78
2021/08/23 02:58:12;;;;;;;11.90;6.32;;;512.00;1945.60;;;;;;5095155;28;20069;-79
2021/08/23 03:00:41;;;;;;;10.55;6.68;;;487.10;1945.60;;;;;;5094830;28;20473;-78
2021/08/23 03:03:06;;;;;;;14.23;6.78;;;487.20;1945.60;;;;;;5107873;28;20560;-79
2021/08/23 03:05:32;;;;;;;12.48;6.80;;;487.30;1945.60;;;;;;5075833;28;20099;-78
2021/08/23 03:07:58;;;;;;;10.70;6.10;;;487.10;1971.20;;;;;;5093957;28;20046;-76
2021/08/23 03:10:23;;;;;;;8.52;6.30;;;487.10;1971.20;;;;;;5094387;28;20088;-79
2021/08/23 03:12:49;;;;;;;21.70;8.35;;;487.10;1971.20;;;;;;5076493;28;20122;-79
2021/08/23 03:15:15;;;;;;;11.00;6.07;;;487.10;1971.20;;;;;;5076037;28;20398;-77
2021/08/23 03:17:41;;;;;;;14.30;7.20;;;487.10;1945.60;;;;;;5076202;28;20081;-79
2021/08/23 03:20:07;;;;;;;8.48;5.63;;;486.90;1971.20;;;;;;5094128;28;20044;-80
2021/08/23 03:22:36;;;;;;;8.52;5.60;;;486.70;1945.60;;;;;;5093881;28;20030;-79
2021/08/23 03:25:02;;;;;;;12.55;6.55;;;486.60;1945.60;;;;;;5093649;28;20095;-77
2021/08/23 03:27:27;;;;;;;9.57;6.18;;;486.50;1971.20;;;;;;5094400;28;20119;-80
2021/08/23 03:29:53;;;;;;;15.20;6.57;;;486.50;1996.80;;;;;;5094360;28;20052;-79
2021/08/23 03:32:19;;;;;;;10.90;5.95;;;461.70;1996.80;;;;;;5094099;28;20676;-77
2021/08/23 03:34:45;;;;;;;15.05;5.97;;;461.70;2022.40;;;;;;5075780;28;20080;-79
2021/08/23 03:37:11;;;;;;;7.35;5.53;;;461.50;2022.40;;;;;;5093728;28;20016;-78
2021/08/23 03:39:37;;;;;;;10.55;5.70;;;461.40;2048.00;;;;;;5094267;28;20024;-79
2021/08/23 03:42:03;;;;;;;8.43;5.60;;;461.40;2048.00;;;;;;5076109;28;20027;-79
2021/08/23 03:44:32;;;;;;;10.20;6.10;;;461.30;2048.00;;;;;;5095337;28;20146;-80
2021/08/23 03:46:59;;;;;;;10.32;5.68;;;461.30;2022.40;;;;;;5093973;28;20031;-79
2021/08/23 03:49:25;;;;;;;9.23;6.22;;;461.30;2048.00;;;;;;5090745;28;20035;-79
2021/08/23 03:51:51;;;;;;;11.23;5.78;;;461.20;2048.00;;;;;;5094246;28;20024;-76
2021/08/23 03:54:16;;;;;;;14.35;7.03;;;461.20;2048.00;;;;;;5093271;28;20047;-75
2021/08/23 03:56:42;;;;;;;10.00;6.00;;;461.40;2022.40;;;;;;5093580;28;20024;-79
2021/08/23 03:59:08;;;;;;;12.55;6.40;;;461.50;1996.80;;;;;;5093472;28;20020;-78
2021/08/23 04:01:34;;;;;;;13.98;6.43;;;461.60;2022.40;;;;;;5075836;28;20385;-79
2021/08/23 04:04:00;;;;;;;12.13;6.53;;;461.60;1996.80;;;;;;5093751;28;20038;-78
2021/08/23 04:06:26;;;;;;;14.63;6.82;;;461.60;2022.40;;;;;;5091687;28;20032;-79
2021/08/23 04:08:58;;;;;;;10.07;5.57;;;461.50;2022.40;;;;;;5094016;28;20030;-79
2021/08/23 04:11:24;;;;;;;11.65;6.00;;;461.60;1996.80;;;;;;5093926;28;20020;-79
2021/08/23 04:13:50;;;;;;;9.38;6.18;;;461.60;1996.80;;;;;;5093949;28;20527;-76
2021/08/23 04:16:20;;;;;;;9.95;5.43;;;461.50;2022.40;;;;;;5094056;28;20051;-80
2021/08/23 04:18:46;;;;;;;10.60;6.55;;;461.50;2022.40;;;;;;5094164;28;20106;-79
2021/08/23 04:21:12;;;;;;;16.20;6.95;;;461.60;2022.40;;;;;;5089863;28;20027;-77
2021/08/23 04:23:38;;;;;;;10.25;5.97;;;461.60;2022.40;;;;;;5093698;28;20512;-79
2021/08/23 04:26:04;;;;;;;15.77;6.13;;;461.60;2022.40;;;;;;5093699;28;20020;-79
2021/08/23 04:28:31;;;;;;;11.98;5.97;;;461.50;2022.40;;;;;;5093601;28;20380;-79
2021/08/23 04:30:57;;;;;;;15.00;6.53;;;461.50;2048.00;;;;;;5093687;28;20045;-78
2021/08/23 04:33:23;;;;;;;8.95;5.80;;;461.40;2073.60;;;;;;5093654;28;20028;-78
2021/08/23 04:35:48;;;;;;;14.85;6.32;;;461.40;2048.00;;;;;;5093208;28;20032;-78
2021/08/23 04:38:14;;;;;;;14.45;6.10;;;461.50;2048.00;;;;;;5093226;28;20084;-77
2021/08/23 04:40:40;;;;;;;8.60;5.47;;;461.50;2048.00;;;;;;5093399;28;20024;-79
2021/08/23 04:43:05;;;;;;;8.68;5.50;;;461.60;2048.00;;;;;;5093288;28;20058;-78
2021/08/23 04:45:31;;;;;;;10.38;6.03;;;461.70;2048.00;;;;;;5093913;28;20039;-79
2021/08/23 04:47:57;;;;;;;12.73;6.47;;;461.70;2073.60;;;;;;5092729;28;20024;-78
2021/08/23 04:50:22;;;;;;;9.57;5.88;;;461.70;2073.60;;;;;;5093114;28;20024;-77
2021/08/23 04:52:48;;;;;;;10.02;5.97;;;461.70;2073.60;;;;;;5093327;28;20171;-78
2021/08/23 04:55:15;;;;;;;8.00;5.72;;;486.40;2073.60;;;;;;5092780;28;20119;-77
2021/08/23 04:57:41;;;;;;;9.15;6.18;;;486.60;2048.00;;;;;;5093508;28;20017;-78
2021/08/23 05:00:07;;;;;;;11.88;5.68;;;486.80;2022.40;;;;;;5093234;28;20016;-78
2021/08/23 05:02:33;;;;;;;10.63;5.72;;;486.90;2022.40;;;;;;5093148;28;20020;-81
2021/08/23 05:04:59;;;;;;;10.85;5.10;;;486.90;2022.40;;;;;;5093534;28;20034;-81
2021/08/23 05:07:25;;;;;;;11.13;5.22;;;487.00;2022.40;;;;;;5096715;28;20035;-82
2021/08/23 05:09:51;;;;;;;15.50;5.47;;;487.20;1996.80;;;;;;5111572;28;20483;-79
2021/08/23 05:12:16;;;;;;;12.73;5.68;;;487.30;1996.80;;;;;;5085347;28;20019;-82
2021/08/23 05:14:42;;;;;;;13.38;5.00;;;512.10;1996.80;;;;;;5075885;28;20078;-83
2021/08/23 05:17:08;;;;;;;12.15;4.82;;;512.10;1971.20;;;;;;5093215;28;20024;-81
2021/08/23 05:19:33;;;;;;;12.10;5.72;;;512.20;1996.80;;;;;;5075324;28;20035;-80
2021/08/23 05:21:59;;;;;;;11.15;5.80;;;512.40;1971.20;;;;;;5075492;28;20140;-80
2021/08/23 05:24:25;;;;;;;8.15;4.72;;;512.60;1971.20;;;;;;5098479;28;20380;-83
2021/08/23 05:26:51;;;;;;;8.10;4.82;;;512.70;1971.20;;;;;;5102522;28;20105;-80
2021/08/23 05:29:16;;;;;;;8.35;5.00;;;512.90;1945.60;;;;;;5092927;28;20023;-78
2021/08/23 05:31:42;;;;;;;12.85;4.75;;;537.60;1945.60;;;;;;5092881;28;20087;-78
2021/08/23 05:34:08;;;;;;;7.95;4.20;;;537.70;1945.60;;;;;;5092457;28;20024;-83
2021/08/23 05:36:33;;;;;;;8.48;4.25;;;537.80;1920.00;;;;;;5092987;28;20032;-81
2021/08/23 05:38:59;;;;;;;9.68;4.90;;;538.00;1920.00;;;;;;5097892;28;20020;-81
2021/08/23 05:41:25;;;;;;;11.80;5.18;;;538.00;1920.00;;;;;;5100305;28;20028;-82
2021/08/23 05:43:51;;;;;;;10.73;4.43;;;538.10;1920.00;;;;;;5093335;28;20077;-83
2021/08/23 05:46:23;;;;;;;8.85;3.90;;;538.20;1920.00;;;;;;5092517;28;20024;-79
2021/08/23 05:48:50;;;;;;;6.65;3.78;;;538.40;1894.40;;;;;;5093354;28;20527;-78
2021/08/23 05:51:17;;;;;;;8.65;3.90;;;563.20;1894.40;;;;;;5096533;28;20435;-77
2021/08/23 05:53:44;;;;;;;9.43;3.72;;;563.40;1894.40;;;;;;5094606;28;20023;-78
2021/08/23 05:56:11;;;;;;;8.00;3.90;;;563.70;1843.20;;;;;;5094929;28;20047;-78
2021/08/23 05:58:37;;;;;;;9.70;3.78;;;564.00;1792.00;;;;;;5096695;28;20074;-80
2021/08/23 06:01:05;;;;;;;9.00;3.45;;;588.80;1740.80;;;;;;5096543;28;20029;-77
2021/08/23 06:03:32;;;;;;;5.80;3.55;;;589.00;1740.80;;;;;;5095177;28;20380;-75
2021/08/23 06:06:06;;;;;;;7.45;4.18;;;589.30;1715.20;;;;;;5094093;28;20092;-79
2021/08/23 06:08:34;;;;;;;7.15;4.22;;;589.40;1715.20;;;;;;5093346;28;20111;-79
2021/08/23 06:11:00;;;;;;;10.93;4.28;;;589.70;1689.60;;;;;;5095719;28;20052;-78
2021/08/23 06:13:26;;;;;;;6.05;3.75;;;589.70;1664.00;;;;;;5093989;28;20027;-76
2021/08/23 06:15:54;;;;;;;8.60;4.05;;;614.50;1664.00;;;;;;5095747;28;20024;-75
2021/08/23 06:18:20;;;;;;;10.77;5.78;;;614.70;1612.80;;;;;;5095245;28;20155;-77
2021/08/23 06:20:46;;;;;;;7.57;4.97;;;614.80;1612.80;;;;;;5094008;28;20028;-75
2021/08/23 06:23:11;;;;;;;7.38;4.35;;;615.00;1587.20;;;;;;5094299;28;20035;-77
2021/08/23 06:25:37;;;;;;;8.70;4.47;;;615.10;1561.60;;;;;;5095688;28;20150;-76
2021/08/23 06:28:03;;;;;;;9.13;4.47;;;615.20;1561.60;;;;;;5095640;28;20114;-76
2021/08/23 06:30:29;;;;;;;8.65;5.13;;;615.30;1510.40;;;;;;5095572;28;20047;-76
2021/08/23 06:32:55;;;;;;;10.98;5.20;;;640.10;1510.40;;;;;;5094894;28;20120;-78
2021/08/23 06:35:20;;;;;;;11.35;4.97;;;640.20;1510.40;;;;;;5094319;28;20057;-74
2021/08/23 06:37:46;;;;;;;15.48;5.10;;;640.40;1484.80;;;;;;5094698;28;20120;-77
2021/08/23 06:40:14;;;;;;;14.27;4.55;;;640.50;1484.80;;;;;;5094774;28;20043;-78
2021/08/23 06:42:40;;;;;;;8.65;4.97;;;640.60;1459.20;;;;;;5095043;28;20448;-76
2021/08/23 06:45:06;;;;;;;9.75;5.00;;;640.70;1459.20;;;;;;5095069;28;20043;-78
2021/08/23 06:47:33;;;;;;;16.00;4.72;;;665.70;1484.80;;;;;;5094427;28;20050;-76
2021/08/23 06:49:58;;;;;;;7.88;4.80;;;665.60;1459.20;;;;;;5095396;28;20032;-76
2021/08/23 06:52:24;;;;;;;7.78;4.85;;;665.70;1459.20;;;;;;5097703;28;20027;-80
2021/08/23 06:54:50;;;;;;;10.75;4.85;;;665.80;1433.60;;;;;;5104235;28;20127;-80
2021/08/23 06:57:16;;;;;;;10.80;4.68;;;665.70;1433.60;;;;;;5095489;28;20028;-80
2021/08/23 06:59:42;;;;;;;12.90;5.90;;;666.00;1433.60;;;;;;5094468;28;20073;-79
2021/08/23 07:02:08;;;;;;;9.95;5.20;;;666.10;1408.00;;;;;;5095683;28;20528;-79
2021/08/23 07:04:35;;;;;;;10.18;5.03;;;666.20;1433.60;;;;;;5095431;28;20107;-75
2021/08/23 07:07:04;;;;;;;17.30;4.88;;;666.40;1408.00;;;;;;5095332;28;20064;-78
2021/08/23 07:09:30;;;;;;;12.05;5.15;;;691.20;1382.40;;;;;;5095487;28;20024;-76
2021/08/23 07:11:56;;;;;;;9.02;4.90;;;691.30;1408.00;;;;;;5095494;28;20031;-79
2021/08/23 07:14:21;;;;;;;11.95;4.80;;;691.40;1382.40;;;;;;5095329;28;20055;-80
2021/08/23 07:16:47;;;;;;;7.40;4.30;;;691.60;1382.40;;;;;;5095270;28;20039;-78
2021/08/23 07:19:13;;;;;;;12.40;4.95;;;691.70;1331.20;;;;;;5095166;28;20024;-76
2021/08/23 07:21:39;;;;;;;16.13;4.72;;;691.80;1331.20;;;;;;5076740;28;20495;-75
2021/08/23 07:24:06;;;;;;;6.57;5.07;;;691.90;1305.60;;;;;;5095308;28;20149;-79
2021/08/23 07:26:32;;;;;;;11.38;5.32;;;691.90;1331.20;;;;;;5094627;28;20016;-75
2021/08/23 07:28:58;;;;;;;10.80;4.70;;;692.10;1305.60;;;;;;5094354;28;20043;-80
2021/08/23 07:31:23;;;;;;;12.55;5.03;;;716.80;1356.80;;;;;;5094675;28;20042;-78
2021/08/23 07:33:49;;;;;;;8.57;4.57;;;717.00;1331.20;;;;;;5094218;28;20094;-74
2021/08/23 07:36:15;;;;;;;10.35;4.90;;;717.10;1331.20;;;;;;5094137;28;20077;-80
2021/08/23 07:38:41;;;;;;;11.30;4.75;;;717.10;1305.60;;;;;;5094787;28;20024;-81
2021/08/23 07:41:06;;;;;;;12.63;4.97;;;717.20;1280.00;;;;;;5101455;28;20147;-74
2021/08/23 07:43:32;;;;;;;7.15;4.57;;;717.40;1305.60;;;;;;5098496;28;20461;-79
2021/08/23 07:45:58;;;;;;;8.82;4.38;;;717.50;1305.60;;;;;;5105139;28;20059;-80
2021/08/23 07:48:23;;;;;;;7.75;4.95;;;717.60;1254.40;;;;;;5104943;28;20063;-76
2021/08/23 07:50:50;;;;;;;13.85;4.60;;;717.60;1280.00;;;;;;5107661;28;20461;-78
2021/08/23 07:53:16;;;;;;;8.23;3.72;;;717.60;1254.40;;;;;;5111079;28;20023;-76
2021/08/23 07:55:42;;;;;;;9.15;4.22;;;717.50;1228.80;;;;;;5096070;28;20036;-75
2021/08/23 07:58:08;;;;;;;15.80;4.80;;;717.60;1254.40;;;;;;5100563;28;20031;-75
2021/08/23 08:00:34;;;;;;;12.18;4.88;;;742.40;1280.00;;;;;;5114551;28;20072;-75
2021/08/23 08:02:59;;;;;;;13.43;4.90;;;742.40;1254.40;;;;;;5114305;28;20480;-75
2021/08/23 08:05:25;;;;;;;12.23;4.70;;;742.40;1254.40;;;;;;5114421;28;20168;-74
2021/08/23 08:07:51;;;;;;;8.90;3.78;;;742.40;1254.40;;;;;;5114268;28;20432;-78
2021/08/23 08:10:17;;;;;;;8.98;4.47;;;742.50;1254.40;;;;;;5113924;28;20084;-78
2021/08/23 08:12:43;;;;;;;12.77;4.30;;;742.40;1254.40;;;;;;5099665;28;20029;-75
2021/08/23 08:15:10;;;;;;;8.50;4.20;;;742.50;1228.80;;;;;;5100420;28;20027;-78
2021/08/23 08:17:36;;;;;;;9.82;5.43;;;742.60;1254.40;;;;;;5114348;28;20023;-74
2021/08/23 08:20:04;;;;;;;7.88;4.20;;;742.60;1228.80;;;;;;5113940;28;20056;-79
2021/08/23 08:22:30;;;;;;;11.02;4.07;;;742.60;1228.80;;;;;;5114167;28;20039;-78
2021/08/23 08:24:56;;;;;;;11.30;4.55;;;742.80;1228.80;;;;;;5113747;28;20024;-78
2021/08/23 08:27:22;;;;;;;8.05;4.93;;;743.00;1254.40;;;;;;5105114;28;20441;-75
2021/08/23 08:29:47;;;;;;;8.30;4.80;;;743.00;1203.20;;;;;;5075463;28;20027;-75
2021/08/23 08:32:13;;;;;;;9.82;4.35;;;743.10;1228.80;;;;;;5100671;28;20505;-75
2021/08/23 08:34:39;;;;;;;22.33;5.57;;;743.30;1203.20;;;;;;5113888;28;20072;-77
2021/08/23 08:37:05;;;;;;;10.20;4.97;;;743.20;1203.20;;;;;;5099188;28;20027;-76
2021/08/23 08:39:30;;;;;;;8.18;4.70;;;743.30;1203.20;;;;;;5102547;28;20476;-76
2021/08/23 08:41:58;;;;;;;11.38;4.53;;;768.00;1177.60;;;;;;5092684;28;20039;-76
2021/08/23 08:44:24;;;;;;;7.95;5.13;;;743.00;1203.20;;;;;;5092916;28;20032;-77
2021/08/23 08:46:51;;;;;;;10.20;4.43;;;742.80;1228.80;;;;;;5092911;28;20367;-77
2021/08/23 08:49:18;;;;;;;9.95;4.68;;;742.90;1228.80;;;;;;5092732;28;20044;-77
2021/08/23 08:51:46;;;;;;;10.52;4.82;;;742.80;1203.20;;;;;;5104435;28;20047;-76
2021/08/23 08:54:12;;;;;;;7.40;4.40;;;742.80;1203.20;;;;;;5092792;28;20036;-78
2021/08/23 08:56:38;;;;;;;12.52;4.40;;;742.80;1203.20;;;;;;5092841;28;20024;-76
2021/08/23 08:59:07;;;;;;;8.70;4.40;;;742.80;1203.20;;;;;;5093051;28;20036;-75
2021/08/23 09:01:34;;;;;;;10.00;5.20;;;742.90;1203.20;;;;;;5092583;28;20051;-76
2021/08/23 09:04:03;;;;;;;8.75;5.35;;;743.20;1203.20;;;;;;5092666;28;20296;-77
2021/08/23 09:06:40;;;;;;;21.63;5.00;;;743.30;1177.60;;;;;;5092769;28;20016;-77
2021/08/23 09:09:11;;;;;;;7.15;4.38;;;768.00;1203.20;;;;;;5091552;28;20453;-76
2021/08/23 09:11:39;;;;;;;12.90;4.55;;;743.30;1203.20;;;;;;5089880;28;20031;-76
2021/08/23 09:14:06;;;;;;;9.55;4.85;;;768.10;1203.20;;;;;;5092599;28;20020;-76
2021/08/23 09:16:39;;;;;;;11.93;5.60;;;768.10;1203.20;;;;;;5097169;28;20020;-75
2021/08/23 09:19:08;;;;;;;7.00;4.25;;;768.40;1203.20;;;;;;5092653;28;20020;-76
2021/08/23 09:21:39;;;;;;;10.07;4.75;;;768.50;1177.60;;;;;;5093492;28;20107;-78
2021/08/23 09:24:23;;;;;;;8.35;5.13;;;768.60;1177.60;;;;;;5103196;28;20021;-76
2021/08/23 09:26:48;;;;;;;6.47;4.45;;;768.70;1177.60;;;;;;5092411;28;20032;-79
2021/08/23 09:29:15;;;;;;;7.93;4.65;;;768.90;1152.00;;;;;;5092549;28;20427;-77
2021/08/23 09:31:41;;;;;;;16.15;4.30;;;768.90;1126.40;;;;;;5092432;28;20012;-75
2021/08/23 09:34:09;;;;;;;10.57;4.53;;;768.90;1152.00;;;;;;5092206;28;20077;-75
2021/08/23 09:36:35;;;;;;;8.65;5.05;;;793.70;1177.60;;;;;;5092402;28;20020;-75
2021/08/23 09:39:04;;;;;;;11.35;5.00;;;793.80;1152.00;;;;;;5092316;28;20024;-75
2021/08/23 09:41:31;;;;;;;11.43;4.57;;;794.00;1152.00;;;;;;5092287;28;20008;-75
2021/08/23 09:44:08;;;;;;;10.40;5.18;;;794.00;1126.40;;;;;;5092361;28;20024;-75
2021/08/23 09:46:36;;;;;;;8.63;4.35;;;794.20;1126.40;;;;;;5091012;28;20484;-75
2021/08/23 09:49:04;;;;;;;10.65;5.20;;;794.30;1126.40;;;;;;5092290;28;20031;-75
2021/08/23 09:51:39;;;;;;;11.43;4.82;;;794.30;1100.80;;;;;;5102286;28;20460;-75
2021/08/23 09:54:05;;;;;;;6.40;3.83;;;794.50;1100.80;;;;;;5093008;28;20016;-74
2021/08/23 09:56:33;;;;;;;9.70;4.65;;;794.40;1075.20;;;;;;5091804;28;20366;-76
2021/08/23 09:59:01;;;;;;;8.00;4.05;;;794.40;1075.20;;;;;;5106566;28;20027;-76
2021/08/23 10:01:30;;;;;;;10.27;4.32;;;794.50;1075.20;;;;;;5092266;28;20024;-75
2021/08/23 10:03:58;;;;;;;8.15;4.82;;;819.40;1075.20;;;;;;5092200;28;20043;-75
2021/08/23 10:06:25;;;;;;;11.40;4.60;;;819.50;1049.60;;;;;;5092606;28;20054;-75
2021/08/23 10:08:51;;;;;;;8.35;4.47;;;819.70;1049.60;;;;;;5111629;28;20084;-75
2021/08/23 10:11:18;;;;;;;12.10;4.68;;;819.80;1075.20;;;;;;5095541;28;20024;-76
2021/08/23 10:13:45;;;;;;;7.72;4.07;;;819.70;1024.00;;;;;;5098947;28;20453;-75
2021/08/23 10:16:11;;;;;;;8.10;5.00;;;819.60;1024.00;;;;;;5091788;28;20030;-75
2021/08/23 10:18:38;;;;;;;13.15;4.45;;;819.70;1024.00;;;;;;5095193;28;20091;-75
2021/08/23 10:21:07;;;;;;;6.35;5.05;;;819.90;1024.00;;;;;;5097315;28;20043;-75
2021/08/23 10:23:35;;;;;;;10.00;4.40;;;820.10;1049.60;;;;;;5092373;28;20020;-76
2021/08/23 10:26:01;;;;;;;6.50;4.07;;;844.90;1049.60;;;;;;5095987;28;20056;-74
2021/08/23 10:28:36;;;;;;;11.38;5.57;;;845.10;998.40;;;;;;5097459;28;20496;-75
2021/08/23 10:31:09;;;;;;;10.32;5.63;;;845.10;1024.00;;;;;;5077374;28;20111;-75
2021/08/23 10:33:38;;;;;;;12.68;5.60;;;845.40;1049.60;;;;;;5098609;28;20051;-76
2021/08/23 10:36:11;;;;;;;8.88;4.95;;;845.50;998.40;;;;;;5098936;28;20032;-75
2021/08/23 10:38:38;;;;;;;9.15;5.18;;;845.50;1024.00;;;;;;5096333;28;20086;-77
2021/08/23 10:41:07;;;;;;;10.40;5.50;;;845.40;1024.00;;;;;;5098667;28;20051;-76
2021/08/23 10:43:45;;;;;;;15.23;5.82;;;845.50;1024.00;;;;;;5101632;28;20027;-75
2021/08/23 10:46:33;;;;;;;8.95;5.35;;;845.70;998.40;;;;;;5098346;28;20032;-75
2021/08/23 10:49:11;;;;;;;13.02;5.03;;;870.40;998.40;;;;;;5092471;28;20028;-75
2021/08/23 10:52:04;;;;;;;8.60;5.28;;;870.40;972.80;;;;;;5098447;28;20023;-76
2021/08/23 10:54:56;;;;;;;9.60;5.25;;;870.40;1024.00;;;;;;5100862;28;20048;-76
2021/08/23 10:57:22;;;;;;;9.25;4.70;;;845.70;998.40;;;;;;5092750;28;20118;-75
2021/08/23 10:59:51;;;;;;;7.05;5.20;;;870.50;998.40;;;;;;5096210;28;20034;-76
2021/08/23 11:02:26;;;;;;;10.13;4.22;;;870.70;947.20;;;;;;5096016;28;20059;-76
2021/08/23 11:05:10;;;;;;;10.80;5.70;;;870.80;947.20;;;;;;5095268;28;20028;-74
2021/08/23 11:07:38;;;;;;;6.10;4.57;;;870.90;921.60;;;;;;5093719;28;20322;-76
2021/08/23 11:10:12;;;;;;;14.10;5.38;;;871.00;921.60;;;;;;5092026;28;20032;-78
2021/08/23 11:12:48;;;;;;;6.88;4.95;;;871.20;947.20;;;;;;5108190;28;20085;-77
2021/08/23 11:15:14;;;;;;;10.85;4.82;;;871.10;921.60;;;;;;5088603;28;20104;-76
2021/08/23 11:17:48;;;;;;;8.13;4.95;;;871.20;896.00;;;;;;5100683;28;20091;-76
2021/08/23 11:20:22;;;;;;;8.02;5.20;;;871.30;921.60;;;;;;5074295;28;20020;-77
2021/08/23 11:22:58;;;;;;;10.75;5.65;;;871.30;896.00;;;;;;5075597;28;20024;-75
2021/08/23 11:25:29;;;;;;;6.60;4.47;;;871.30;896.00;;;;;;5074590;28;20497;-76
2021/08/23 11:27:56;;;;;;;12.25;4.97;;;871.30;870.40;;;;;;5089374;28;20074;-78
2021/08/23 11:30:30;;;;;;;10.57;5.05;;;896.40;870.40;;;;;;5095804;28;20024;-77
2021/08/23 11:32:56;;;;;;;8.87;5.10;;;896.20;844.80;;;;;;5109771;28;20040;-79
2021/08/23 11:35:22;;;;;;;7.35;4.50;;;896.10;870.40;;;;;;5095937;28;20035;-77
2021/08/23 11:37:58;;;;;;;6.82;4.93;;;896.40;844.80;;;;;;5095140;28;20107;-77
2021/08/23 11:40:25;;;;;;;7.03;5.07;;;896.20;870.40;;;;;;5096113;28;20034;-78
2021/08/23 11:42:55;;;;;;;12.57;4.50;;;896.40;870.40;;;;;;5095132;28;20524;-76
2021/08/23 11:45:32;;;;;;;8.30;4.68;;;896.40;844.80;;;;;;5094090;28;20099;-76
2021/08/23 11:47:59;;;;;;;8.30;5.32;;;896.50;844.80;;;;;;5091667;28;20035;-78
2021/08/23 11:50:25;;;;;;;11.48;5.65;;;896.60;870.40;;;;;;5093802;28;20054;-77
2021/08/23 11:52:53;;;;;;;6.28;4.53;;;896.60;844.80;;;;;;5093796;28;20060;-78
2021/08/23 11:55:30;;;;;;;7.40;4.30;;;896.50;870.40;;;;;;5071704;28;20062;-78
2021/08/23 11:57:57;;;;;;;9.02;4.95;;;896.80;844.80;;;;;;5071217;28;20481;-77
2021/08/23 12:00:23;;;;;;;9.25;4.65;;;896.70;870.40;;;;;;5073517;28;20100;-78
2021/08/23 12:02:59;;;;;;;11.75;5.20;;;896.80;870.40;;;;;;5073640;28;20111;-76
2021/08/23 12:05:25;;;;;;;7.90;4.55;;;896.60;870.40;;;;;;5090991;28;20024;-77
2021/08/23 12:07:51;;;;;;;6.25;4.63;;;896.70;844.80;;;;;;5079890;28;20123;-77
2021/08/23 12:10:28;;;;;;;9.90;5.03;;;896.60;870.40;;;;;;5073440;28;20021;-75
2021/08/23 12:13:13;;;;;;;6.72;4.32;;;896.90;870.40;;;;;;5068888;28;20366;-77
2021/08/23 12:15:55;;;;;;;8.43;4.43;;;921.70;896.00;;;;;;5071658;28;20024;-79
2021/08/23 12:18:31;;;;;;;11.38;4.80;;;921.90;870.40;;;;;;5071755;28;20500;-75